sensor_id;sensor_type;location;lat;lon;timestamp;pressure;altitude;pressure_sealevel;temperature;humidity
60371;BME280;48550;40.588;49.684;2023-02-16T00:00:45;101766.38;;;2.12;100.00
60371;BME280;48550;40.588;49.684;2023-02-16T00:03:14;101759.44;;;2.11;100.00
60371;BME280;48550;40.588;49.684;2023-02-16T00:05:40;101764.19;;;2.07;100.00
60371;BME280;48550;40.588;49.684;2023-02-16T00:08:06;101769.50;;;2.07;100.00
60371;BME280;48550;40.588;49.684;2023-02-16T00:10:33;101772.06;;;1.99;100.00
60371;BME280;48550;40.588;49.684;2023-02-16T00:13:00;101777.91;;;2.03;100.00
60371;BME280;48550;40.588;49.684;2023-02-16T00:15:45;101769.41;;;1.99;100.00
60371;BME280;48550;40.588;49.684;2023-02-16T00:18:18;101767.38;;;1.93;100.00
60371;BME280;48550;40.588;49.684;2023-02-16T00:20:45;101772.44;;;1.86;100.00
60371;BME280;48550;40.588;49.684;2023-02-16T00:23:11;101779.78;;;1.92;100.00
60371;BME280;48550;40.588;49.684;2023-02-16T00:25:36;101780.38;;;1.86;100.00
60371;BME280;48550;40.588;49.684;2023-02-16T00:28:06;101783.19;;;1.85;100.00
60371;BME280;48550;40.588;49.684;2023-02-16T00:30:32;101785.53;;;1.88;100.00
60371;BME280;48550;40.588;49.684;2023-02-16T00:32:58;101788.69;;;1.74;100.00
60371;BME280;48550;40.588;49.684;2023-02-16T00:35:24;101794.81;;;1.74;100.00
60371;BME280;48550;40.588;49.684;2023-02-16T00:37:50;101803.72;;;1.73;100.00
60371;BME280;48550;40.588;49.684;2023-02-16T00:40:16;101805.00;;;1.69;100.00
60371;BME280;48550;40.588;49.684;2023-02-16T00:42:43;101800.25;;;1.73;100.00
60371;BME280;48550;40.588;49.684;2023-02-16T00:45:18;101813.09;;;1.68;100.00
60371;BME280;48550;40.588;49.684;2023-02-16T00:47:46;101809.47;;;1.69;100.00
60371;BME280;48550;40.588;49.684;2023-02-16T00:52:46;101808.50;;;1.70;100.00
60371;BME280;48550;40.588;49.684;2023-02-16T00:55:21;101818.69;;;1.65;100.00
60371;BME280;48550;40.588;49.684;2023-02-16T00:57:50;101821.44;;;1.73;100.00
60371;BME280;48550;40.588;49.684;2023-02-16T01:00:22;101826.78;;;1.63;100.00
60371;BME280;48550;40.588;49.684;2023-02-16T01:02:50;101834.16;;;1.59;100.00
60371;BME280;48550;40.588;49.684;2023-02-16T01:05:16;101841.81;;;1.63;100.00
60371;BME280;48550;40.588;49.684;2023-02-16T01:07:42;101841.41;;;1.57;100.00
60371;BME280;48550;40.588;49.684;2023-02-16T01:10:27;101850.72;;;1.62;100.00
60371;BME280;48550;40.588;49.684;2023-02-16T01:13:12;101846.28;;;1.62;100.00
60371;BME280;48550;40.588;49.684;2023-02-16T01:15:39;101855.03;;;1.63;100.00
60371;BME280;48550;40.588;49.684;2023-02-16T01:18:06;101857.09;;;1.69;100.00
60371;BME280;48550;40.588;49.684;2023-02-16T01:20:32;101866.75;;;1.60;100.00
60371;BME280;48550;40.588;49.684;2023-02-16T01:23:00;101871.47;;;1.66;100.00
60371;BME280;48550;40.588;49.684;2023-02-16T01:25:26;101879.84;;;1.62;100.00
60371;BME280;48550;40.588;49.684;2023-02-16T01:27:52;101867.16;;;1.65;100.00
60371;BME280;48550;40.588;49.684;2023-02-16T01:30:23;101877.44;;;1.68;100.00
60371;BME280;48550;40.588;49.684;2023-02-16T01:32:49;101880.22;;;1.67;100.00
60371;BME280;48550;40.588;49.684;2023-02-16T01:35:23;101883.88;;;1.66;100.00
60371;BME280;48550;40.588;49.684;2023-02-16T01:37:49;101892.22;;;1.61;100.00
60371;BME280;48550;40.588;49.684;2023-02-16T01:45:35;101903.94;;;1.58;100.00
60371;BME280;48550;40.588;49.684;2023-02-16T01:48:08;101905.06;;;1.56;100.00
60371;BME280;48550;40.588;49.684;2023-02-16T01:53:24;101908.84;;;1.53;100.00
60371;BME280;48550;40.588;49.684;2023-02-16T01:55:55;101911.44;;;1.63;100.00
60371;BME280;48550;40.588;49.684;2023-02-16T02:03:32;101927.34;;;1.53;100.00
60371;BME280;48550;40.588;49.684;2023-02-16T02:06:21;101925.41;;;1.55;100.00
60371;BME280;48550;40.588;49.684;2023-02-16T02:08:55;101925.81;;;1.61;100.00
60371;BME280;48550;40.588;49.684;2023-02-16T02:11:45;101924.41;;;1.56;100.00
60371;BME280;48550;40.588;49.684;2023-02-16T02:14:36;101930.56;;;1.57;100.00
60371;BME280;48550;40.588;49.684;2023-02-16T02:17:06;101937.06;;;1.63;100.00
60371;BME280;48550;40.588;49.684;2023-02-16T02:20:02;101940.59;;;1.53;100.00
60371;BME280;48550;40.588;49.684;2023-02-16T02:22:48;101952.41;;;1.59;100.00
60371;BME280;48550;40.588;49.684;2023-02-16T02:25:56;101957.25;;;1.64;100.00
60371;BME280;48550;40.588;49.684;2023-02-16T02:31:12;101962.31;;;1.57;100.00
60371;BME280;48550;40.588;49.684;2023-02-16T02:41:59;101976.91;;;1.61;100.00
60371;BME280;48550;40.588;49.684;2023-02-16T02:44:46;101964.41;;;1.53;100.00
60371;BME280;48550;40.588;49.684;2023-02-16T02:47:13;101972.75;;;1.58;100.00
60371;BME280;48550;40.588;49.684;2023-02-16T02:49:38;101964.41;;;1.53;100.00
60371;BME280;48550;40.588;49.684;2023-02-16T02:52:06;101978.03;;;1.58;100.00
60371;BME280;48550;40.588;49.684;2023-02-16T02:54:38;101966.91;;;1.45;100.00
60371;BME280;48550;40.588;49.684;2023-02-16T02:57:44;101990.00;;;1.63;100.00
60371;BME280;48550;40.588;49.684;2023-02-16T03:05:56;101991.53;;;1.65;100.00
60371;BME280;48550;40.588;49.684;2023-02-16T03:08:26;102006.72;;;1.63;100.00
60371;BME280;48550;40.588;49.684;2023-02-16T03:10:57;102003.63;;;1.68;100.00
60371;BME280;48550;40.588;49.684;2023-02-16T03:13:46;102013.66;;;1.74;100.00
60371;BME280;48550;40.588;49.684;2023-02-16T03:16:24;102014.91;;;1.70;100.00
60371;BME280;48550;40.588;49.684;2023-02-16T03:18:52;102012.56;;;1.67;100.00
60371;BME280;48550;40.588;49.684;2023-02-16T03:21:38;102017.28;;;1.63;100.00
60371;BME280;48550;40.588;49.684;2023-02-16T03:24:28;102021.63;;;1.64;100.00
60371;BME280;48550;40.588;49.684;2023-02-16T03:27:16;102022.88;;;1.60;100.00
60371;BME280;48550;40.588;49.684;2023-02-16T03:30:03;102024.81;;;1.58;100.00
60371;BME280;48550;40.588;49.684;2023-02-16T03:32:30;102021.47;;;1.66;100.00
60371;BME280;48550;40.588;49.684;2023-02-16T03:34:56;102025.13;;;1.55;100.00
60371;BME280;48550;40.588;49.684;2023-02-16T03:37:22;102038.97;;;1.86;100.00
60371;BME280;48550;40.588;49.684;2023-02-16T03:39:48;102037.06;;;1.69;100.00
60371;BME280;48550;40.588;49.684;2023-02-16T03:42:32;102041.63;;;1.76;100.00
60371;BME280;48550;40.588;49.684;2023-02-16T03:44:58;102054.63;;;1.70;100.00
60371;BME280;48550;40.588;49.684;2023-02-16T03:47:24;102039.88;;;1.57;100.00
60371;BME280;48550;40.588;49.684;2023-02-16T03:49:50;102056.03;;;1.54;100.00
60371;BME280;48550;40.588;49.684;2023-02-16T03:52:15;102054.63;;;1.70;100.00
60371;BME280;48550;40.588;49.684;2023-02-16T03:54:41;102058.22;;;1.69;100.00
60371;BME280;48550;40.588;49.684;2023-02-16T03:57:07;102059.47;;;1.74;100.00
60371;BME280;48550;40.588;49.684;2023-02-16T03:59:32;102069.63;;;1.79;100.00
60371;BME280;48550;40.588;49.684;2023-02-16T04:01:58;102063.78;;;1.75;100.00
60371;BME280;48550;40.588;49.684;2023-02-16T04:04:24;102063.25;;;1.72;100.00
60371;BME280;48550;40.588;49.684;2023-02-16T04:06:49;102073.81;;;1.81;100.00
60371;BME280;48550;40.588;49.684;2023-02-16T04:09:15;102084.66;;;1.88;100.00
60371;BME280;48550;40.588;49.684;2023-02-16T04:11:41;102084.25;;;1.83;100.00
60371;BME280;48550;40.588;49.684;2023-02-16T04:14:25;102082.56;;;1.91;100.00
60371;BME280;48550;40.588;49.684;2023-02-16T04:16:51;102097.34;;;1.94;100.00
60371;BME280;48550;40.588;49.684;2023-02-16T04:19:16;102092.44;;;1.99;100.00
60371;BME280;48550;40.588;49.684;2023-02-16T04:21:42;102093.00;;;2.03;100.00
60371;BME280;48550;40.588;49.684;2023-02-16T04:24:07;102102.31;;;2.07;100.00
60371;BME280;48550;40.588;49.684;2023-02-16T04:26:33;102096.75;;;2.10;100.00
60371;BME280;48550;40.588;49.684;2023-02-16T04:28:59;102111.63;;;2.20;100.00
60371;BME280;48550;40.588;49.684;2023-02-16T04:31:25;102118.03;;;2.28;100.00
60371;BME280;48550;40.588;49.684;2023-02-16T04:33:50;102123.34;;;2.28;100.00
60371;BME280;48550;40.588;49.684;2023-02-16T04:36:16;102119.66;;;2.48;100.00
60371;BME280;48550;40.588;49.684;2023-02-16T04:38:42;102124.53;;;2.43;100.00
60371;BME280;48550;40.588;49.684;2023-02-16T04:41:07;102126.31;;;2.52;100.00
60371;BME280;48550;40.588;49.684;2023-02-16T04:43:33;102130.31;;;2.66;100.00
60371;BME280;48550;40.588;49.684;2023-02-16T04:45:59;102128.09;;;2.88;100.00
60371;BME280;48550;40.588;49.684;2023-02-16T04:48:25;102130.00;;;2.96;100.00
60371;BME280;48550;40.588;49.684;2023-02-16T04:50:51;102129.69;;;3.09;100.00
60371;BME280;48550;40.588;49.684;2023-02-16T04:53:17;102128.31;;;3.05;100.00
60371;BME280;48550;40.588;49.684;2023-02-16T04:55:47;102142.72;;;2.93;100.00
60371;BME280;48550;40.588;49.684;2023-02-16T04:58:13;102143.22;;;3.33;100.00
60371;BME280;48550;40.588;49.684;2023-02-16T05:00:39;102138.59;;;3.53;98.08
60371;BME280;48550;40.588;49.684;2023-02-16T05:03:05;102153.59;;;3.62;95.39
60371;BME280;48550;40.588;49.684;2023-02-16T05:05:31;102146.63;;;3.61;96.50
60371;BME280;48550;40.588;49.684;2023-02-16T05:07:57;102154.47;;;3.80;93.61
60371;BME280;48550;40.588;49.684;2023-02-16T05:10:23;102153.53;;;3.90;93.21
60371;BME280;48550;40.588;49.684;2023-02-16T05:12:49;102145.41;;;3.91;92.53
60371;BME280;48550;40.588;49.684;2023-02-16T05:15:33;102152.63;;;3.81;92.59
60371;BME280;48550;40.588;49.684;2023-02-16T05:17:59;102148.50;;;4.30;90.53
60371;BME280;48550;40.588;49.684;2023-02-16T05:20:24;102156.34;;;4.58;89.05
60371;BME280;48550;40.588;49.684;2023-02-16T05:23:10;102156.69;;;5.55;79.49
60371;BME280;48550;40.588;49.684;2023-02-16T05:25:36;102156.41;;;5.91;73.67
60371;BME280;48550;40.588;49.684;2023-02-16T05:28:01;102167.03;;;6.40;72.92
60371;BME280;48550;40.588;49.684;2023-02-16T05:30:27;102152.88;;;7.56;66.48
60371;BME280;48550;40.588;49.684;2023-02-16T05:32:53;102161.72;;;7.57;66.77
60371;BME280;48550;40.588;49.684;2023-02-16T05:35:18;102151.53;;;6.43;70.10
60371;BME280;48550;40.588;49.684;2023-02-16T05:37:44;102159.25;;;6.05;73.32
60371;BME280;48550;40.588;49.684;2023-02-16T05:40:10;102154.91;;;5.14;77.36
60371;BME280;48550;40.588;49.684;2023-02-16T05:42:36;102158.59;;;4.78;80.63
60371;BME280;48550;40.588;49.684;2023-02-16T05:45:01;102157.78;;;4.86;80.82
60371;BME280;48550;40.588;49.684;2023-02-16T05:47:28;102151.84;;;5.59;76.35
60371;BME280;48550;40.588;49.684;2023-02-16T05:49:53;102154.34;;;5.44;78.45
60371;BME280;48550;40.588;49.684;2023-02-16T05:52:19;102155.38;;;5.09;80.94
60371;BME280;48550;40.588;49.684;2023-02-16T05:54:45;102157.16;;;5.42;78.23
60371;BME280;48550;40.588;49.684;2023-02-16T05:57:10;102163.44;;;6.80;69.62
60371;BME280;48550;40.588;49.684;2023-02-16T05:59:36;102162.28;;;6.66;70.71
60371;BME280;48550;40.588;49.684;2023-02-16T06:02:02;102160.91;;;5.98;72.39
60371;BME280;48550;40.588;49.684;2023-02-16T06:04:27;102165.16;;;5.51;74.68
60371;BME280;48550;40.588;49.684;2023-02-16T06:06:53;102164.50;;;5.65;74.33
60371;BME280;48550;40.588;49.684;2023-02-16T06:09:19;102158.38;;;5.89;74.26
60371;BME280;48550;40.588;49.684;2023-02-16T06:11:45;102164.88;;;5.94;73.77
60371;BME280;48550;40.588;49.684;2023-02-16T06:14:16;102169.41;;;6.10;72.41
60371;BME280;48550;40.588;49.684;2023-02-16T06:16:46;102172.00;;;5.78;73.39
60371;BME280;48550;40.588;49.684;2023-02-16T06:19:13;102165.34;;;5.57;73.90
60371;BME280;48550;40.588;49.684;2023-02-16T06:21:39;102176.16;;;5.64;75.51
60371;BME280;48550;40.588;49.684;2023-02-16T06:24:06;102161.53;;;5.84;73.42
60371;BME280;48550;40.588;49.684;2023-02-16T06:26:33;102165.53;;;5.80;73.72
60371;BME280;48550;40.588;49.684;2023-02-16T06:28:59;102177.16;;;5.55;75.09
60371;BME280;48550;40.588;49.684;2023-02-16T06:31:25;102171.47;;;5.50;75.88
60371;BME280;48550;40.588;49.684;2023-02-16T06:33:52;102177.66;;;5.66;75.91
60371;BME280;48550;40.588;49.684;2023-02-16T06:36:18;102172.56;;;5.89;75.27
60371;BME280;48550;40.588;49.684;2023-02-16T06:38:44;102176.13;;;5.48;76.92
60371;BME280;48550;40.588;49.684;2023-02-16T06:41:10;102173.78;;;5.36;77.88
60371;BME280;48550;40.588;49.684;2023-02-16T06:43:36;102177.72;;;5.91;73.17
60371;BME280;48550;40.588;49.684;2023-02-16T06:46:02;102177.06;;;6.21;71.65
60371;BME280;48550;40.588;49.684;2023-02-16T06:48:28;102183.34;;;5.88;71.87
60371;BME280;48550;40.588;49.684;2023-02-16T06:50:54;102180.69;;;5.13;76.44
60371;BME280;48550;40.588;49.684;2023-02-16T06:53:20;102180.38;;;4.82;79.89
60371;BME280;48550;40.588;49.684;2023-02-16T06:55:48;102183.75;;;4.92;79.50
60371;BME280;48550;40.588;49.684;2023-02-16T06:58:14;102183.91;;;5.25;77.53
60371;BME280;48550;40.588;49.684;2023-02-16T07:00:40;102193.94;;;5.39;77.19
60371;BME280;48550;40.588;49.684;2023-02-16T07:03:05;102189.09;;;5.34;77.08
60371;BME280;48550;40.588;49.684;2023-02-16T07:05:31;102197.28;;;5.57;76.63
60371;BME280;48550;40.588;49.684;2023-02-16T07:07:57;102192.00;;;5.82;75.82
60371;BME280;48550;40.588;49.684;2023-02-16T07:10:22;102195.81;;;5.71;73.15
60371;BME280;48550;40.588;49.684;2023-02-16T07:12:48;102199.16;;;5.81;74.04
60371;BME280;48550;40.588;49.684;2023-02-16T07:15:14;102194.19;;;5.20;75.45
60371;BME280;48550;40.588;49.684;2023-02-16T07:17:39;102203.56;;;5.98;72.74
60371;BME280;48550;40.588;49.684;2023-02-16T07:20:06;102200.03;;;5.90;72.10
60371;BME280;48550;40.588;49.684;2023-02-16T07:22:32;102203.72;;;6.13;71.95
60371;BME280;48550;40.588;49.684;2023-02-16T07:24:57;102191.22;;;6.05;72.58
60371;BME280;48550;40.588;49.684;2023-02-16T07:27:25;102191.41;;;6.12;71.26
60371;BME280;48550;40.588;49.684;2023-02-16T07:29:51;102202.03;;;6.28;70.66
60371;BME280;48550;40.588;49.684;2023-02-16T07:32:17;102202.72;;;6.14;71.61
60371;BME280;48550;40.588;49.684;2023-02-16T07:34:43;102197.72;;;6.03;72.94
60371;BME280;48550;40.588;49.684;2023-02-16T07:37:10;102198.69;;;6.43;69.93
60371;BME280;48550;40.588;49.684;2023-02-16T07:39:36;102191.47;;;6.76;69.43
60371;BME280;48550;40.588;49.684;2023-02-16T07:42:02;102191.41;;;6.12;71.64
60371;BME280;48550;40.588;49.684;2023-02-16T07:44:27;102192.72;;;6.00;71.49
60371;BME280;48550;40.588;49.684;2023-02-16T07:46:53;102187.59;;;5.32;74.35
60371;BME280;48550;40.588;49.684;2023-02-16T07:49:19;102192.13;;;5.05;77.72
60371;BME280;48550;40.588;49.684;2023-02-16T07:51:45;102194.78;;;5.48;75.80
60371;BME280;48550;40.588;49.684;2023-02-16T07:54:10;102194.84;;;5.88;74.25
60371;BME280;48550;40.588;49.684;2023-02-16T07:56:36;102188.75;;;5.29;75.01
60371;BME280;48550;40.588;49.684;2023-02-16T07:59:03;102203.41;;;5.33;75.72
60371;BME280;48550;40.588;49.684;2023-02-16T08:01:29;102200.59;;;5.43;76.23
60371;BME280;48550;40.588;49.684;2023-02-16T08:03:55;102205.81;;;5.19;78.14
60371;BME280;48550;40.588;49.684;2023-02-16T08:06:22;102203.38;;;4.91;79.13
60371;BME280;48550;40.588;49.684;2023-02-16T08:08:48;102199.03;;;5.24;78.49
60371;BME280;48550;40.588;49.684;2023-02-16T08:11:22;102192.78;;;5.41;78.26
60371;BME280;48550;40.588;49.684;2023-02-16T08:13:48;102201.53;;;5.26;77.99
60371;BME280;48550;40.588;49.684;2023-02-16T08:16:20;102183.06;;;5.24;78.32
60371;BME280;48550;40.588;49.684;2023-02-16T08:18:46;102204.28;;;5.08;78.12
60371;BME280;48550;40.588;49.684;2023-02-16T08:21:14;102198.34;;;4.80;80.50
60371;BME280;48550;40.588;49.684;2023-02-16T08:23:41;102202.69;;;5.23;78.55
60371;BME280;48550;40.588;49.684;2023-02-16T08:26:10;102200.44;;;5.02;78.97
60371;BME280;48550;40.588;49.684;2023-02-16T08:28:36;102198.75;;;5.01;78.91
60371;BME280;48550;40.588;49.684;2023-02-16T08:31:03;102185.97;;;5.05;80.24
60371;BME280;48550;40.588;49.684;2023-02-16T08:33:29;102191.94;;;4.99;79.99
60371;BME280;48550;40.588;49.684;2023-02-16T08:35:55;102190.50;;;4.78;81.19
60371;BME280;48550;40.588;49.684;2023-02-16T08:38:21;102176.19;;;4.71;82.33
60371;BME280;48550;40.588;49.684;2023-02-16T08:40:48;102191.50;;;4.77;82.04
60371;BME280;48550;40.588;49.684;2023-02-16T08:43:14;102211.75;;;5.47;78.74
60371;BME280;48550;40.588;49.684;2023-02-16T08:45:46;102199.59;;;5.44;78.16
60371;BME280;48550;40.588;49.684;2023-02-16T08:48:13;102204.00;;;5.19;78.05
60371;BME280;48550;40.588;49.684;2023-02-16T08:50:43;102201.50;;;4.84;83.23
60371;BME280;48550;40.588;49.684;2023-02-16T08:53:12;102193.59;;;4.66;82.04
60371;BME280;48550;40.588;49.684;2023-02-16T08:55:38;102205.13;;;4.49;83.54
60371;BME280;48550;40.588;49.684;2023-02-16T08:58:04;102202.50;;;4.31;85.50
60371;BME280;48550;40.588;49.684;2023-02-16T09:00:30;102191.00;;;4.48;85.03
60371;BME280;48550;40.588;49.684;2023-02-16T09:02:59;102191.16;;;4.46;85.30
60371;BME280;48550;40.588;49.684;2023-02-16T09:05:25;102179.88;;;4.78;84.53
60371;BME280;48550;40.588;49.684;2023-02-16T09:07:53;102183.94;;;4.99;82.94
60371;BME280;48550;40.588;49.684;2023-02-16T09:10:18;102180.38;;;4.82;84.03
60371;BME280;48550;40.588;49.684;2023-02-16T09:12:47;102188.09;;;4.93;83.94
60371;BME280;48550;40.588;49.684;2023-02-16T09:15:15;102186.16;;;5.11;82.27
60371;BME280;48550;40.588;49.684;2023-02-16T09:17:41;102188.00;;;5.19;83.86
60371;BME280;48550;40.588;49.684;2023-02-16T09:20:08;102177.03;;;4.72;85.98
60371;BME280;48550;40.588;49.684;2023-02-16T09:22:34;102181.38;;;4.47;87.01
60371;BME280;48550;40.588;49.684;2023-02-16T09:25:00;102188.06;;;4.33;89.49
60371;BME280;48550;40.588;49.684;2023-02-16T09:27:26;102187.81;;;4.70;88.31
60371;BME280;48550;40.588;49.684;2023-02-16T09:29:52;102192.81;;;5.07;87.18
60371;BME280;48550;40.588;49.684;2023-02-16T09:32:17;102194.56;;;4.91;82.98
60371;BME280;48550;40.588;49.684;2023-02-16T09:34:43;102196.22;;;4.92;85.27
60371;BME280;48550;40.588;49.684;2023-02-16T09:37:09;102205.19;;;4.91;84.65
60371;BME280;48550;40.588;49.684;2023-02-16T09:39:35;102202.91;;;4.96;83.77
60371;BME280;48550;40.588;49.684;2023-02-16T09:45:04;102200.06;;;4.97;85.82
60371;BME280;48550;40.588;49.684;2023-02-16T09:47:34;102199.38;;;4.35;87.28
60371;BME280;48550;40.588;49.684;2023-02-16T09:50:05;102199.97;;;4.47;86.75
60371;BME280;48550;40.588;49.684;2023-02-16T09:53:07;102201.19;;;4.35;88.41
60371;BME280;48550;40.588;49.684;2023-02-16T09:55:45;102205.13;;;4.49;87.02
60371;BME280;48550;40.588;49.684;2023-02-16T09:58:21;102204.13;;;3.70;90.24
60371;BME280;48550;40.588;49.684;2023-02-16T10:00:53;102194.25;;;3.63;92.72
60371;BME280;48550;40.588;49.684;2023-02-16T10:15:33;102213.84;;;4.15;90.71
60371;BME280;48550;40.588;49.684;2023-02-16T10:18:06;102210.72;;;4.20;89.51
60371;BME280;48550;40.588;49.684;2023-02-16T10:20:42;102201.88;;;4.37;90.48
60371;BME280;48550;40.588;49.684;2023-02-16T10:28:50;102210.66;;;4.55;89.58
60371;BME280;48550;40.588;49.684;2023-02-16T10:31:30;102212.28;;;4.48;88.95
60371;BME280;48550;40.588;49.684;2023-02-16T10:34:19;102205.84;;;4.85;86.31
60371;BME280;48550;40.588;49.684;2023-02-16T10:47:45;102211.91;;;3.81;98.84
60371;BME280;48550;40.588;49.684;2023-02-16T10:50:22;102194.28;;;3.98;98.87
60371;BME280;48550;40.588;49.684;2023-02-16T10:52:51;102204.53;;;3.93;100.00
60371;BME280;48550;40.588;49.684;2023-02-16T10:55:19;102214.81;;;4.14;100.00
60371;BME280;48550;40.588;49.684;2023-02-16T10:57:53;102226.91;;;3.91;99.99
60371;BME280;48550;40.588;49.684;2023-02-16T11:00:25;102214.47;;;4.09;100.00
60371;BME280;48550;40.588;49.684;2023-02-16T11:02:54;102223.97;;;3.94;100.00
60371;BME280;48550;40.588;49.684;2023-02-16T11:05:37;102217.19;;;4.17;100.00
60371;BME280;48550;40.588;49.684;2023-02-16T11:08:04;102214.16;;;4.12;99.10
60371;BME280;48550;40.588;49.684;2023-02-16T11:10:40;102228.81;;;3.80;100.00
60371;BME280;48550;40.588;49.684;2023-02-16T11:13:24;102228.88;;;4.06;100.00
60371;BME280;48550;40.588;49.684;2023-02-16T11:15:53;102224.09;;;3.74;100.00
60371;BME280;48550;40.588;49.684;2023-02-16T11:20:53;102233.66;;;4.03;100.00
60371;BME280;48550;40.588;49.684;2023-02-16T11:23:25;102232.81;;;4.20;100.00
60371;BME280;48550;40.588;49.684;2023-02-16T11:34:00;102256.13;;;4.08;95.41
60371;BME280;48550;40.588;49.684;2023-02-16T11:39:26;102262.06;;;3.85;99.44
60371;BME280;48550;40.588;49.684;2023-02-16T11:42:05;102263.50;;;3.97;100.00
60371;BME280;48550;40.588;49.684;2023-02-16T11:44:41;102266.31;;;3.95;100.00
60371;BME280;48550;40.588;49.684;2023-02-16T11:47:33;102268.28;;;3.93;100.00
60371;BME280;48550;40.588;49.684;2023-02-16T11:50:24;102290.59;;;3.55;100.00
60371;BME280;48550;40.588;49.684;2023-02-16T11:53:14;102290.03;;;3.51;100.00
60371;BME280;48550;40.588;49.684;2023-02-16T11:55:44;102293.28;;;3.45;100.00
60371;BME280;48550;40.588;49.684;2023-02-16T11:58:23;102293.53;;;3.25;100.00
60371;BME280;48550;40.588;49.684;2023-02-16T12:06:58;102297.31;;;3.49;100.00
60371;BME280;48550;40.588;49.684;2023-02-16T12:12:48;102310.94;;;3.64;100.00
60371;BME280;48550;40.588;49.684;2023-02-16T12:20:49;102328.22;;;2.94;100.00
60371;BME280;48550;40.588;49.684;2023-02-16T12:23:43;102329.75;;;2.97;100.00
60371;BME280;48550;40.588;49.684;2023-02-16T12:34:44;102351.69;;;3.45;100.00
60371;BME280;48550;40.588;49.684;2023-02-16T12:40:02;102356.72;;;2.92;100.00
60371;BME280;48550;40.588;49.684;2023-02-16T12:45:21;102357.00;;;2.89;100.00
60371;BME280;48550;40.588;49.684;2023-02-16T12:50:30;102366.50;;;3.01;100.00
60371;BME280;48550;40.588;49.684;2023-02-16T12:53:07;102373.72;;;3.09;100.00
60371;BME280;48550;40.588;49.684;2023-02-16T12:55:51;102377.91;;;2.92;100.00
60371;BME280;48550;40.588;49.684;2023-02-16T12:58:31;102351.53;;;2.91;100.00
60371;BME280;48550;40.588;49.684;2023-02-16T13:01:09;102379.31;;;2.86;100.00
60371;BME280;48550;40.588;49.684;2023-02-16T13:03:44;102378.47;;;2.96;100.00
60371;BME280;48550;40.588;49.684;2023-02-16T13:09:10;102392.56;;;2.96;100.00
60371;BME280;48550;40.588;49.684;2023-02-16T13:11:49;102399.84;;;2.46;100.00
60371;BME280;48550;40.588;49.684;2023-02-16T13:14:24;102397.47;;;2.43;100.00
60371;BME280;48550;40.588;49.684;2023-02-16T13:16:55;102398.31;;;2.43;100.00
60371;BME280;48550;40.588;49.684;2023-02-16T13:19:22;102396.34;;;2.36;100.00
60371;BME280;48550;40.588;49.684;2023-02-16T13:27:14;102410.09;;;2.10;100.00
60371;BME280;48550;40.588;49.684;2023-02-16T13:35:40;102421.03;;;1.86;100.00
60371;BME280;48550;40.588;49.684;2023-02-16T13:41:43;102442.13;;;1.67;100.00
60371;BME280;48550;40.588;49.684;2023-02-16T13:44:23;102444.03;;;1.55;100.00
60371;BME280;48550;40.588;49.684;2023-02-16T13:46:51;102456.88;;;1.60;100.00
60371;BME280;48550;40.588;49.684;2023-02-16T13:49:38;102452.84;;;1.66;100.00
60371;BME280;48550;40.588;49.684;2023-02-16T13:52:29;102453.13;;;1.63;100.00
60371;BME280;48550;40.588;49.684;2023-02-16T13:54:58;102458.72;;;1.48;100.00
60371;BME280;48550;40.588;49.684;2023-02-16T14:00:37;102474.94;;;1.55;100.00
60371;BME280;48550;40.588;49.684;2023-02-16T14:05:37;102475.25;;;1.62;100.00
60371;BME280;48550;40.588;49.684;2023-02-16T14:15:52;102488.22;;;1.44;100.00
60371;BME280;48550;40.588;49.684;2023-02-16T14:19:00;102497.97;;;1.43;100.00
60371;BME280;48550;40.588;49.684;2023-02-16T14:24:03;102516.72;;;1.51;100.00
60371;BME280;48550;40.588;49.684;2023-02-16T14:26:34;102516.72;;;1.51;100.00
60371;BME280;48550;40.588;49.684;2023-02-16T14:29:23;102514.34;;;1.37;100.00
60371;BME280;48550;40.588;49.684;2023-02-16T14:32:17;102518.16;;;1.44;100.00
60371;BME280;48550;40.588;49.684;2023-02-16T14:35:18;102532.75;;;1.39;100.00
60371;BME280;48550;40.588;49.684;2023-02-16T14:37:58;102541.72;;;1.47;100.00
60371;BME280;48550;40.588;49.684;2023-02-16T14:43:05;102543.00;;;1.32;100.00
60371;BME280;48550;40.588;49.684;2023-02-16T14:59:03;102555.44;;;1.52;100.00
60371;BME280;48550;40.588;49.684;2023-02-16T15:01:42;102562.28;;;1.55;100.00
60371;BME280;48550;40.588;49.684;2023-02-16T15:04:09;102550.97;;;1.53;100.00
60371;BME280;48550;40.588;49.684;2023-02-16T15:06:44;102569.38;;;1.54;100.00
60371;BME280;48550;40.588;49.684;2023-02-16T15:09:30;102574.16;;;1.61;100.00
60371;BME280;48550;40.588;49.684;2023-02-16T15:12:11;102578.53;;;1.50;100.00
60371;BME280;48550;40.588;49.684;2023-02-16T15:14:51;102590.84;;;2.03;100.00
60371;BME280;48550;40.588;49.684;2023-02-16T15:22:35;102599.69;;;1.50;100.00
60371;BME280;48550;40.588;49.684;2023-02-16T15:27:59;102604.63;;;1.76;100.00
60371;BME280;48550;40.588;49.684;2023-02-16T15:30:34;102607.97;;;1.99;100.00
60371;BME280;48550;40.588;49.684;2023-02-16T15:33:05;102603.00;;;1.64;100.00
60371;BME280;48550;40.588;49.684;2023-02-16T15:35:41;102610.94;;;1.64;100.00
60371;BME280;48550;40.588;49.684;2023-02-16T15:38:23;102614.03;;;1.69;100.00
60371;BME280;48550;40.588;49.684;2023-02-16T15:41:00;102615.06;;;1.56;100.00
60371;BME280;48550;40.588;49.684;2023-02-16T15:45:52;102618.56;;;1.46;100.00
60371;BME280;48550;40.588;49.684;2023-02-16T15:48:23;102615.66;;;1.60;100.00
60371;BME280;48550;40.588;49.684;2023-02-16T15:50:52;102612.19;;;1.48;100.00
60371;BME280;48550;40.588;49.684;2023-02-16T15:53:28;102610.50;;;1.58;100.00